Sosnowiec, Poland
Current Conditions -  °F | °C
As of 7:00 PM on Tuesday 27 Jan 2015 (Local Time) from EPKT Reporting Station
Drizzle Drizzle  
Wind Chill: 27°   Ceiling: 500
Heat Index: 34°   Visibility: 3mi
Dew Point: 32°   Wind: 8mph
Humidity: 93%   Direction: 240°WSW
Pressure: 29.91"   Gusts: NA
Location:  50.28°N, 19.12°E
Report Text: EPKT 271700Z 24007KT 5000 -DZ BR FEW003 SCT004 BKN005 01/00 Q1013
Loading
Personal Weather Stations






























Interactive Weather Map New forecast layout! Learn more

10-Day Weather Forecast

Advertisements
Track Severe Weather on mobile